sensor_id;sensor_type;location;lat;lon;timestamp;P1;durP1;ratioP1;P2;durP2;ratioP2
46897;SDS011;32646;50.958;6.258;2023-08-01T00:01:48;1.13;;;0.20;;
46897;SDS011;32646;50.958;6.258;2023-08-01T00:04:16;0.82;;;0.30;;
46897;SDS011;32646;50.958;6.258;2023-08-01T00:06:43;3.00;;;0.30;;
46897;SDS011;32646;50.958;6.258;2023-08-01T00:09:11;0.88;;;0.50;;
46897;SDS011;32646;50.958;6.258;2023-08-01T00:11:39;0.47;;;0.10;;
46897;SDS011;32646;50.958;6.258;2023-08-01T00:14:06;0.38;;;0.10;;
46897;SDS011;32646;50.958;6.258;2023-08-01T00:16:33;0.60;;;0.20;;
46897;SDS011;32646;50.958;6.258;2023-08-01T00:19:01;1.15;;;0.30;;
46897;SDS011;32646;50.958;6.258;2023-08-01T00:21:28;0.98;;;0.30;;
46897;SDS011;32646;50.958;6.258;2023-08-01T00:23:56;1.17;;;0.35;;
46897;SDS011;32646;50.958;6.258;2023-08-01T00:29:50;1.48;;;0.25;;
46897;SDS011;32646;50.958;6.258;2023-08-01T00:36:11;0.77;;;0.30;;
46897;SDS011;32646;50.958;6.258;2023-08-01T00:42:39;1.05;;;0.35;;
46897;SDS011;32646;50.958;6.258;2023-08-01T00:45:53;4.13;;;0.40;;
46897;SDS011;32646;50.958;6.258;2023-08-01T00:52:54;0.25;;;0.20;;
46897;SDS011;32646;50.958;6.258;2023-08-01T01:10:10;0.95;;;0.32;;
46897;SDS011;32646;50.958;6.258;2023-08-01T01:13:11;1.33;;;0.35;;
46897;SDS011;32646;50.958;6.258;2023-08-01T01:16:13;0.80;;;0.28;;
46897;SDS011;32646;50.958;6.258;2023-08-01T01:39:13;1.73;;;0.60;;
46897;SDS011;32646;50.958;6.258;2023-08-01T01:41:42;1.83;;;0.65;;
46897;SDS011;32646;50.958;6.258;2023-08-01T01:44:09;1.92;;;0.77;;
46897;SDS011;32646;50.958;6.258;2023-08-01T01:46:35;2.58;;;0.73;;
46897;SDS011;32646;50.958;6.258;2023-08-01T01:49:02;2.35;;;0.75;;
46897;SDS011;32646;50.958;6.258;2023-08-01T01:51:29;2.30;;;0.73;;
46897;SDS011;32646;50.958;6.258;2023-08-01T01:53:56;2.58;;;0.88;;
46897;SDS011;32646;50.958;6.258;2023-08-01T01:56:23;1.85;;;0.70;;
46897;SDS011;32646;50.958;6.258;2023-08-01T01:58:49;2.78;;;0.90;;
46897;SDS011;32646;50.958;6.258;2023-08-01T02:01:16;3.00;;;0.90;;
46897;SDS011;32646;50.958;6.258;2023-08-01T02:03:43;2.70;;;1.00;;
46897;SDS011;32646;50.958;6.258;2023-08-01T02:06:09;2.75;;;0.88;;
46897;SDS011;32646;50.958;6.258;2023-08-01T02:08:36;4.38;;;1.42;;
46897;SDS011;32646;50.958;6.258;2023-08-01T02:11:02;3.10;;;1.20;;
46897;SDS011;32646;50.958;6.258;2023-08-01T02:13:29;2.40;;;0.88;;
46897;SDS011;32646;50.958;6.258;2023-08-01T02:16:00;2.38;;;0.90;;
46897;SDS011;32646;50.958;6.258;2023-08-01T02:18:26;3.13;;;1.50;;
46897;SDS011;32646;50.958;6.258;2023-08-01T02:20:53;4.07;;;1.13;;
46897;SDS011;32646;50.958;6.258;2023-08-01T02:23:19;3.05;;;1.20;;
46897;SDS011;32646;50.958;6.258;2023-08-01T02:25:46;3.20;;;1.10;;
46897;SDS011;32646;50.958;6.258;2023-08-01T02:28:13;3.40;;;1.40;;
46897;SDS011;32646;50.958;6.258;2023-08-01T02:30:39;3.90;;;1.35;;
46897;SDS011;32646;50.958;6.258;2023-08-01T02:33:06;4.20;;;1.60;;
46897;SDS011;32646;50.958;6.258;2023-08-01T02:35:33;5.25;;;1.65;;
46897;SDS011;32646;50.958;6.258;2023-08-01T02:37:59;6.90;;;1.98;;
46897;SDS011;32646;50.958;6.258;2023-08-01T02:40:26;4.55;;;1.50;;
46897;SDS011;32646;50.958;6.258;2023-08-01T02:42:52;4.53;;;1.88;;
46897;SDS011;32646;50.958;6.258;2023-08-01T02:45:19;5.03;;;2.15;;
46897;SDS011;32646;50.958;6.258;2023-08-01T02:47:46;4.45;;;1.90;;
46897;SDS011;32646;50.958;6.258;2023-08-01T02:50:12;4.00;;;1.98;;
46897;SDS011;32646;50.958;6.258;2023-08-01T02:52:39;6.32;;;2.63;;
46897;SDS011;32646;50.958;6.258;2023-08-01T02:55:06;6.82;;;2.60;;
46897;SDS011;32646;50.958;6.258;2023-08-01T02:57:33;5.40;;;2.85;;
46897;SDS011;32646;50.958;6.258;2023-08-01T02:59:59;5.70;;;2.47;;
46897;SDS011;32646;50.958;6.258;2023-08-01T03:02:26;7.30;;;2.60;;
46897;SDS011;32646;50.958;6.258;2023-08-01T03:04:52;7.03;;;2.63;;
46897;SDS011;32646;50.958;6.258;2023-08-01T03:07:19;6.72;;;2.72;;
46897;SDS011;32646;50.958;6.258;2023-08-01T03:09:46;6.40;;;3.17;;
46897;SDS011;32646;50.958;6.258;2023-08-01T03:12:12;7.57;;;3.45;;
46897;SDS011;32646;50.958;6.258;2023-08-01T03:14:39;8.88;;;2.65;;
46897;SDS011;32646;50.958;6.258;2023-08-01T03:17:05;8.35;;;2.90;;
46897;SDS011;32646;50.958;6.258;2023-08-01T03:19:32;6.85;;;3.35;;
46897;SDS011;32646;50.958;6.258;2023-08-01T03:21:59;8.77;;;3.60;;
46897;SDS011;32646;50.958;6.258;2023-08-01T03:24:26;11.07;;;3.65;;
46897;SDS011;32646;50.958;6.258;2023-08-01T03:26:55;8.05;;;3.30;;
46897;SDS011;32646;50.958;6.258;2023-08-01T03:33:15;9.77;;;3.38;;
46897;SDS011;32646;50.958;6.258;2023-08-01T03:35:54;7.43;;;3.72;;
46897;SDS011;32646;50.958;6.258;2023-08-01T03:38:26;9.65;;;3.20;;
46897;SDS011;32646;50.958;6.258;2023-08-01T03:40:53;10.68;;;3.65;;
46897;SDS011;32646;50.958;6.258;2023-08-01T03:43:19;8.07;;;3.10;;
46897;SDS011;32646;50.958;6.258;2023-08-01T03:45:46;8.18;;;3.45;;
46897;SDS011;32646;50.958;6.258;2023-08-01T03:48:13;8.95;;;2.92;;
46897;SDS011;32646;50.958;6.258;2023-08-01T03:50:39;8.95;;;3.13;;
46897;SDS011;32646;50.958;6.258;2023-08-01T03:53:06;12.07;;;3.85;;
46897;SDS011;32646;50.958;6.258;2023-08-01T03:55:32;8.52;;;3.38;;
46897;SDS011;32646;50.958;6.258;2023-08-01T03:57:59;8.00;;;3.45;;
46897;SDS011;32646;50.958;6.258;2023-08-01T04:00:26;9.95;;;3.28;;
46897;SDS011;32646;50.958;6.258;2023-08-01T04:02:54;7.75;;;3.13;;
46897;SDS011;32646;50.958;6.258;2023-08-01T04:05:20;9.88;;;3.35;;
46897;SDS011;32646;50.958;6.258;2023-08-01T04:07:47;9.07;;;3.53;;
46897;SDS011;32646;50.958;6.258;2023-08-01T04:10:14;8.43;;;3.67;;
46897;SDS011;32646;50.958;6.258;2023-08-01T04:12:41;12.15;;;4.25;;
46897;SDS011;32646;50.958;6.258;2023-08-01T04:15:08;9.27;;;3.95;;
46897;SDS011;32646;50.958;6.258;2023-08-01T04:17:35;14.05;;;3.78;;
46897;SDS011;32646;50.958;6.258;2023-08-01T04:20:01;8.10;;;3.80;;
46897;SDS011;32646;50.958;6.258;2023-08-01T04:22:28;8.43;;;3.50;;
46897;SDS011;32646;50.958;6.258;2023-08-01T04:24:55;10.27;;;3.80;;
46897;SDS011;32646;50.958;6.258;2023-08-01T04:27:21;12.13;;;3.50;;
46897;SDS011;32646;50.958;6.258;2023-08-01T04:29:48;9.50;;;3.22;;
46897;SDS011;32646;50.958;6.258;2023-08-01T04:32:14;8.73;;;3.28;;
46897;SDS011;32646;50.958;6.258;2023-08-01T04:34:41;9.25;;;3.30;;
46897;SDS011;32646;50.958;6.258;2023-08-01T04:37:20;11.40;;;3.35;;
46897;SDS011;32646;50.958;6.258;2023-08-01T04:39:47;8.23;;;3.55;;
46897;SDS011;32646;50.958;6.258;2023-08-01T04:42:13;9.10;;;3.90;;
46897;SDS011;32646;50.958;6.258;2023-08-01T04:44:40;9.90;;;2.78;;
46897;SDS011;32646;50.958;6.258;2023-08-01T04:47:06;10.50;;;3.53;;
46897;SDS011;32646;50.958;6.258;2023-08-01T04:49:33;10.32;;;3.30;;
46897;SDS011;32646;50.958;6.258;2023-08-01T04:52:00;13.13;;;3.70;;
46897;SDS011;32646;50.958;6.258;2023-08-01T04:54:26;6.80;;;2.95;;
46897;SDS011;32646;50.958;6.258;2023-08-01T04:56:53;7.00;;;3.30;;
46897;SDS011;32646;50.958;6.258;2023-08-01T04:59:19;8.05;;;3.13;;
46897;SDS011;32646;50.958;6.258;2023-08-01T05:01:46;6.63;;;2.95;;
46897;SDS011;32646;50.958;6.258;2023-08-01T05:04:13;12.35;;;3.63;;
46897;SDS011;32646;50.958;6.258;2023-08-01T05:06:39;10.90;;;3.40;;
46897;SDS011;32646;50.958;6.258;2023-08-01T05:09:06;9.75;;;3.58;;
46897;SDS011;32646;50.958;6.258;2023-08-01T05:11:33;8.85;;;3.20;;
46897;SDS011;32646;50.958;6.258;2023-08-01T05:13:59;8.02;;;3.38;;
46897;SDS011;32646;50.958;6.258;2023-08-01T05:16:26;12.95;;;4.03;;
46897;SDS011;32646;50.958;6.258;2023-08-01T05:18:52;12.65;;;3.38;;
46897;SDS011;32646;50.958;6.258;2023-08-01T05:21:19;9.65;;;3.42;;
46897;SDS011;32646;50.958;6.258;2023-08-01T05:23:45;12.25;;;3.70;;
46897;SDS011;32646;50.958;6.258;2023-08-01T05:26:12;10.50;;;3.58;;
46897;SDS011;32646;50.958;6.258;2023-08-01T05:28:39;10.63;;;3.60;;
46897;SDS011;32646;50.958;6.258;2023-08-01T05:31:05;9.88;;;3.35;;
46897;SDS011;32646;50.958;6.258;2023-08-01T05:33:32;10.75;;;3.28;;
46897;SDS011;32646;50.958;6.258;2023-08-01T05:35:59;8.60;;;2.88;;
46897;SDS011;32646;50.958;6.258;2023-08-01T05:38:25;8.18;;;3.40;;
46897;SDS011;32646;50.958;6.258;2023-08-01T05:40:52;8.70;;;3.13;;
46897;SDS011;32646;50.958;6.258;2023-08-01T05:43:18;8.13;;;3.15;;
46897;SDS011;32646;50.958;6.258;2023-08-01T05:45:45;11.48;;;3.28;;
46897;SDS011;32646;50.958;6.258;2023-08-01T05:48:12;7.90;;;2.95;;
46897;SDS011;32646;50.958;6.258;2023-08-01T05:50:38;9.70;;;3.72;;
46897;SDS011;32646;50.958;6.258;2023-08-01T05:53:05;9.25;;;3.28;;
46897;SDS011;32646;50.958;6.258;2023-08-01T05:55:31;8.35;;;3.50;;
46897;SDS011;32646;50.958;6.258;2023-08-01T05:57:59;7.85;;;3.00;;
46897;SDS011;32646;50.958;6.258;2023-08-01T06:00:26;14.60;;;3.40;;
46897;SDS011;32646;50.958;6.258;2023-08-01T06:02:53;8.35;;;3.10;;
46897;SDS011;32646;50.958;6.258;2023-08-01T06:05:20;7.88;;;3.38;;
46897;SDS011;32646;50.958;6.258;2023-08-01T06:07:46;8.30;;;3.30;;
46897;SDS011;32646;50.958;6.258;2023-08-01T06:10:13;6.72;;;3.00;;
46897;SDS011;32646;50.958;6.258;2023-08-01T06:12:40;9.25;;;3.33;;
46897;SDS011;32646;50.958;6.258;2023-08-01T06:15:06;7.38;;;2.90;;
46897;SDS011;32646;50.958;6.258;2023-08-01T06:17:33;7.72;;;3.13;;
46897;SDS011;32646;50.958;6.258;2023-08-01T06:20:00;11.57;;;3.67;;
46897;SDS011;32646;50.958;6.258;2023-08-01T06:22:26;8.35;;;3.17;;
46897;SDS011;32646;50.958;6.258;2023-08-01T06:24:53;9.02;;;3.53;;
46897;SDS011;32646;50.958;6.258;2023-08-01T06:27:20;12.15;;;4.10;;
46897;SDS011;32646;50.958;6.258;2023-08-01T06:29:47;9.82;;;3.65;;
46897;SDS011;32646;50.958;6.258;2023-08-01T06:32:14;8.63;;;3.03;;
46897;SDS011;32646;50.958;6.258;2023-08-01T06:34:41;10.18;;;4.07;;
46897;SDS011;32646;50.958;6.258;2023-08-01T06:37:08;9.68;;;4.05;;
46897;SDS011;32646;50.958;6.258;2023-08-01T06:39:35;8.82;;;4.30;;
46897;SDS011;32646;50.958;6.258;2023-08-01T06:42:01;9.07;;;3.30;;
46897;SDS011;32646;50.958;6.258;2023-08-01T06:44:29;11.15;;;3.53;;
46897;SDS011;32646;50.958;6.258;2023-08-01T06:46:55;8.30;;;3.50;;
46897;SDS011;32646;50.958;6.258;2023-08-01T06:49:22;10.02;;;3.50;;
46897;SDS011;32646;50.958;6.258;2023-08-01T06:51:48;8.90;;;3.58;;
46897;SDS011;32646;50.958;6.258;2023-08-01T06:54:15;9.30;;;3.22;;
46897;SDS011;32646;50.958;6.258;2023-08-01T06:56:42;8.35;;;2.80;;
46897;SDS011;32646;50.958;6.258;2023-08-01T06:59:08;8.88;;;3.00;;
46897;SDS011;32646;50.958;6.258;2023-08-01T07:01:35;7.00;;;2.53;;
46897;SDS011;32646;50.958;6.258;2023-08-01T07:04:04;8.88;;;3.22;;
46897;SDS011;32646;50.958;6.258;2023-08-01T07:06:30;8.65;;;3.22;;
46897;SDS011;32646;50.958;6.258;2023-08-01T07:08:57;11.60;;;3.50;;
46897;SDS011;32646;50.958;6.258;2023-08-01T07:11:23;6.97;;;2.63;;
46897;SDS011;32646;50.958;6.258;2023-08-01T07:13:50;9.48;;;3.60;;
46897;SDS011;32646;50.958;6.258;2023-08-01T07:16:16;10.25;;;3.40;;
46897;SDS011;32646;50.958;6.258;2023-08-01T07:18:43;8.13;;;3.17;;
46897;SDS011;32646;50.958;6.258;2023-08-01T07:21:10;8.75;;;3.38;;
46897;SDS011;32646;50.958;6.258;2023-08-01T07:23:36;7.53;;;3.30;;
46897;SDS011;32646;50.958;6.258;2023-08-01T07:26:03;7.10;;;3.03;;
46897;SDS011;32646;50.958;6.258;2023-08-01T07:28:30;7.72;;;3.72;;
46897;SDS011;32646;50.958;6.258;2023-08-01T07:31:03;9.25;;;3.65;;
46897;SDS011;32646;50.958;6.258;2023-08-01T07:33:32;7.57;;;3.20;;
46897;SDS011;32646;50.958;6.258;2023-08-01T07:35:59;10.07;;;2.78;;
46897;SDS011;32646;50.958;6.258;2023-08-01T07:38:26;8.48;;;4.00;;
46897;SDS011;32646;50.958;6.258;2023-08-01T07:40:53;9.63;;;3.50;;
46897;SDS011;32646;50.958;6.258;2023-08-01T07:43:21;8.40;;;2.83;;
46897;SDS011;32646;50.958;6.258;2023-08-01T07:45:47;7.45;;;3.20;;
46897;SDS011;32646;50.958;6.258;2023-08-01T07:48:16;9.07;;;3.30;;
46897;SDS011;32646;50.958;6.258;2023-08-01T07:50:43;7.22;;;3.20;;
46897;SDS011;32646;50.958;6.258;2023-08-01T07:53:09;6.25;;;3.15;;
46897;SDS011;32646;50.958;6.258;2023-08-01T07:55:36;10.23;;;3.15;;
46897;SDS011;32646;50.958;6.258;2023-08-01T07:58:02;9.77;;;2.92;;
46897;SDS011;32646;50.958;6.258;2023-08-01T08:00:30;6.03;;;2.55;;
46897;SDS011;32646;50.958;6.258;2023-08-01T08:02:56;8.13;;;3.00;;
46897;SDS011;32646;50.958;6.258;2023-08-01T08:05:23;8.75;;;3.33;;
46897;SDS011;32646;50.958;6.258;2023-08-01T08:07:50;7.07;;;2.92;;
46897;SDS011;32646;50.958;6.258;2023-08-01T08:10:17;5.15;;;2.60;;
46897;SDS011;32646;50.958;6.258;2023-08-01T08:12:44;6.82;;;2.40;;
46897;SDS011;32646;50.958;6.258;2023-08-01T08:15:10;7.38;;;2.92;;
46897;SDS011;32646;50.958;6.258;2023-08-01T08:17:37;6.70;;;2.55;;
46897;SDS011;32646;50.958;6.258;2023-08-01T08:20:04;7.78;;;2.05;;
46897;SDS011;32646;50.958;6.258;2023-08-01T08:22:30;7.53;;;2.53;;
46897;SDS011;32646;50.958;6.258;2023-08-01T08:24:57;4.75;;;2.10;;
46897;SDS011;32646;50.958;6.258;2023-08-01T08:27:24;5.50;;;2.13;;
46897;SDS011;32646;50.958;6.258;2023-08-01T08:29:50;4.63;;;1.80;;
46897;SDS011;32646;50.958;6.258;2023-08-01T08:32:17;5.13;;;2.33;;
46897;SDS011;32646;50.958;6.258;2023-08-01T08:34:46;6.35;;;2.55;;
46897;SDS011;32646;50.958;6.258;2023-08-01T08:37:12;8.07;;;2.10;;
46897;SDS011;32646;50.958;6.258;2023-08-01T08:39:39;6.93;;;2.20;;
46897;SDS011;32646;50.958;6.258;2023-08-01T08:42:06;5.82;;;2.40;;
46897;SDS011;32646;50.958;6.258;2023-08-01T08:44:32;8.32;;;2.63;;
46897;SDS011;32646;50.958;6.258;2023-08-01T08:49:36;5.45;;;2.20;;
46897;SDS011;32646;50.958;6.258;2023-08-01T08:52:04;6.22;;;2.58;;
46897;SDS011;32646;50.958;6.258;2023-08-01T08:54:31;7.25;;;2.30;;
46897;SDS011;32646;50.958;6.258;2023-08-01T08:56:58;8.70;;;2.72;;
46897;SDS011;32646;50.958;6.258;2023-08-01T08:59:25;5.47;;;1.90;;
46897;SDS011;32646;50.958;6.258;2023-08-01T09:01:55;8.48;;;2.40;;
46897;SDS011;32646;50.958;6.258;2023-08-01T09:04:22;6.03;;;2.20;;
46897;SDS011;32646;50.958;6.258;2023-08-01T09:06:49;5.43;;;2.15;;
46897;SDS011;32646;50.958;6.258;2023-08-01T09:09:21;6.45;;;2.47;;
46897;SDS011;32646;50.958;6.258;2023-08-01T09:11:51;7.10;;;2.38;;
46897;SDS011;32646;50.958;6.258;2023-08-01T09:14:18;5.55;;;2.42;;
46897;SDS011;32646;50.958;6.258;2023-08-01T09:16:46;6.43;;;2.15;;
46897;SDS011;32646;50.958;6.258;2023-08-01T09:19:17;4.75;;;2.13;;
46897;SDS011;32646;50.958;6.258;2023-08-01T09:21:45;8.05;;;2.33;;
46897;SDS011;32646;50.958;6.258;2023-08-01T09:24:13;6.88;;;2.00;;
46897;SDS011;32646;50.958;6.258;2023-08-01T09:26:44;7.47;;;2.03;;
46897;SDS011;32646;50.958;6.258;2023-08-01T09:29:12;7.28;;;1.85;;
46897;SDS011;32646;50.958;6.258;2023-08-01T09:31:39;6.78;;;2.10;;
46897;SDS011;32646;50.958;6.258;2023-08-01T09:34:21;4.30;;;2.10;;
46897;SDS011;32646;50.958;6.258;2023-08-01T09:39:20;7.38;;;2.35;;
46897;SDS011;32646;50.958;6.258;2023-08-01T09:41:57;5.35;;;2.30;;
46897;SDS011;32646;50.958;6.258;2023-08-01T09:44:25;5.80;;;2.00;;
46897;SDS011;32646;50.958;6.258;2023-08-01T09:47:02;6.22;;;2.42;;
46897;SDS011;32646;50.958;6.258;2023-08-01T09:49:30;5.03;;;2.25;;
46897;SDS011;32646;50.958;6.258;2023-08-01T09:51:57;6.05;;;2.10;;
46897;SDS011;32646;50.958;6.258;2023-08-01T09:54:25;4.72;;;2.03;;
46897;SDS011;32646;50.958;6.258;2023-08-01T09:56:52;5.10;;;1.90;;
46897;SDS011;32646;50.958;6.258;2023-08-01T09:59:21;6.55;;;2.20;;
46897;SDS011;32646;50.958;6.258;2023-08-01T10:04:50;4.53;;;1.80;;
46897;SDS011;32646;50.958;6.258;2023-08-01T10:07:11;6.57;;;1.85;;
46897;SDS011;32646;50.958;6.258;2023-08-01T10:09:40;6.03;;;1.48;;
46897;SDS011;32646;50.958;6.258;2023-08-01T10:12:07;3.92;;;1.55;;
46897;SDS011;32646;50.958;6.258;2023-08-01T10:14:35;6.03;;;2.08;;
46897;SDS011;32646;50.958;6.258;2023-08-01T10:17:03;5.07;;;2.00;;
46897;SDS011;32646;50.958;6.258;2023-08-01T10:19:32;6.20;;;2.03;;
46897;SDS011;32646;50.958;6.258;2023-08-01T10:21:59;6.47;;;1.77;;
46897;SDS011;32646;50.958;6.258;2023-08-01T10:24:27;4.55;;;1.70;;
46897;SDS011;32646;50.958;6.258;2023-08-01T10:26:55;4.95;;;1.80;;
46897;SDS011;32646;50.958;6.258;2023-08-01T10:29:22;6.10;;;2.00;;
46897;SDS011;32646;50.958;6.258;2023-08-01T10:32:00;5.32;;;1.75;;
46897;SDS011;32646;50.958;6.258;2023-08-01T10:34:26;5.28;;;1.73;;
46897;SDS011;32646;50.958;6.258;2023-08-01T10:36:54;3.67;;;1.85;;
46897;SDS011;32646;50.958;6.258;2023-08-01T10:39:22;5.40;;;1.90;;
46897;SDS011;32646;50.958;6.258;2023-08-01T10:41:59;3.95;;;1.83;;
46897;SDS011;32646;50.958;6.258;2023-08-01T10:44:30;6.28;;;2.05;;
46897;SDS011;32646;50.958;6.258;2023-08-01T10:47:03;7.15;;;1.67;;
46897;SDS011;32646;50.958;6.258;2023-08-01T10:49:38;4.80;;;1.60;;
46897;SDS011;32646;50.958;6.258;2023-08-01T10:52:25;5.57;;;1.83;;
46897;SDS011;32646;50.958;6.258;2023-08-01T10:55:02;4.72;;;1.77;;
46897;SDS011;32646;50.958;6.258;2023-08-01T10:57:30;4.05;;;1.52;;
46897;SDS011;32646;50.958;6.258;2023-08-01T10:59:58;3.95;;;1.48;;
46897;SDS011;32646;50.958;6.258;2023-08-01T11:02:26;4.72;;;1.52;;
46897;SDS011;32646;50.958;6.258;2023-08-01T11:04:58;4.13;;;1.27;;
46897;SDS011;32646;50.958;6.258;2023-08-01T11:07:31;3.83;;;1.30;;
46897;SDS011;32646;50.958;6.258;2023-08-01T11:10:13;4.28;;;1.70;;
46897;SDS011;32646;50.958;6.258;2023-08-01T11:15:11;3.88;;;1.20;;
46897;SDS011;32646;50.958;6.258;2023-08-01T11:17:39;5.07;;;1.40;;
46897;SDS011;32646;50.958;6.258;2023-08-01T11:20:08;4.95;;;1.33;;
46897;SDS011;32646;50.958;6.258;2023-08-01T11:22:48;3.72;;;1.40;;
46897;SDS011;32646;50.958;6.258;2023-08-01T11:25:16;4.40;;;1.23;;
46897;SDS011;32646;50.958;6.258;2023-08-01T11:27:43;4.85;;;1.60;;
46897;SDS011;32646;50.958;6.258;2023-08-01T11:30:12;4.82;;;1.70;;
46897;SDS011;32646;50.958;6.258;2023-08-01T11:32:38;3.97;;;1.30;;
46897;SDS011;32646;50.958;6.258;2023-08-01T11:35:05;8.13;;;1.80;;
46897;SDS011;32646;50.958;6.258;2023-08-01T11:37:33;3.88;;;1.15;;
46897;SDS011;32646;50.958;6.258;2023-08-01T11:40:01;5.50;;;1.45;;
46897;SDS011;32646;50.958;6.258;2023-08-01T11:42:32;5.10;;;1.52;;
46897;SDS011;32646;50.958;6.258;2023-08-01T11:45:08;3.53;;;1.25;;
46897;SDS011;32646;50.958;6.258;2023-08-01T11:47:44;5.50;;;1.60;;
46897;SDS011;32646;50.958;6.258;2023-08-01T11:50:11;5.57;;;1.42;;
46897;SDS011;32646;50.958;6.258;2023-08-01T11:52:39;5.53;;;1.50;;
46897;SDS011;32646;50.958;6.258;2023-08-01T11:55:05;4.88;;;1.55;;
46897;SDS011;32646;50.958;6.258;2023-08-01T11:57:33;5.10;;;1.55;;
46897;SDS011;32646;50.958;6.258;2023-08-01T12:00:00;4.35;;;1.17;;
46897;SDS011;32646;50.958;6.258;2023-08-01T12:02:27;4.80;;;1.30;;
46897;SDS011;32646;50.958;6.258;2023-08-01T12:04:55;4.43;;;1.33;;
46897;SDS011;32646;50.958;6.258;2023-08-01T12:07:24;3.38;;;1.00;;
46897;SDS011;32646;50.958;6.258;2023-08-01T12:09:59;4.95;;;1.35;;
46897;SDS011;32646;50.958;6.258;2023-08-01T12:12:27;5.70;;;1.30;;
46897;SDS011;32646;50.958;6.258;2023-08-01T12:14:54;5.63;;;1.58;;
46897;SDS011;32646;50.958;6.258;2023-08-01T12:17:23;3.65;;;1.25;;
46897;SDS011;32646;50.958;6.258;2023-08-01T12:19:49;3.92;;;1.42;;
46897;SDS011;32646;50.958;6.258;2023-08-01T12:22:16;4.10;;;1.00;;
46897;SDS011;32646;50.958;6.258;2023-08-01T12:24:43;4.00;;;1.25;;
46897;SDS011;32646;50.958;6.258;2023-08-01T12:27:09;4.65;;;1.85;;
46897;SDS011;32646;50.958;6.258;2023-08-01T12:29:36;3.58;;;1.20;;
46897;SDS011;32646;50.958;6.258;2023-08-01T12:32:03;5.53;;;1.35;;
46897;SDS011;32646;50.958;6.258;2023-08-01T12:34:30;4.50;;;1.50;;
46897;SDS011;32646;50.958;6.258;2023-08-01T12:36:57;3.80;;;1.23;;
46897;SDS011;32646;50.958;6.258;2023-08-01T12:39:23;5.25;;;1.33;;
46897;SDS011;32646;50.958;6.258;2023-08-01T12:41:52;5.45;;;1.50;;
46897;SDS011;32646;50.958;6.258;2023-08-01T12:44:20;4.13;;;1.30;;
46897;SDS011;32646;50.958;6.258;2023-08-01T12:46:47;4.90;;;1.33;;
46897;SDS011;32646;50.958;6.258;2023-08-01T12:49:14;3.90;;;1.20;;
46897;SDS011;32646;50.958;6.258;2023-08-01T12:51:41;5.13;;;1.50;;
46897;SDS011;32646;50.958;6.258;2023-08-01T12:54:08;5.28;;;1.55;;
46897;SDS011;32646;50.958;6.258;2023-08-01T12:56:34;4.30;;;1.23;;
46897;SDS011;32646;50.958;6.258;2023-08-01T12:59:01;6.20;;;1.70;;
46897;SDS011;32646;50.958;6.258;2023-08-01T13:01:30;5.03;;;1.75;;
46897;SDS011;32646;50.958;6.258;2023-08-01T13:03:56;4.32;;;1.60;;
46897;SDS011;32646;50.958;6.258;2023-08-01T13:06:23;4.35;;;1.63;;
46897;SDS011;32646;50.958;6.258;2023-08-01T13:08:50;4.40;;;1.60;;
46897;SDS011;32646;50.958;6.258;2023-08-01T13:11:16;5.20;;;1.40;;
46897;SDS011;32646;50.958;6.258;2023-08-01T13:13:43;4.00;;;1.58;;
46897;SDS011;32646;50.958;6.258;2023-08-01T13:16:09;5.28;;;1.60;;
46897;SDS011;32646;50.958;6.258;2023-08-01T13:18:36;5.07;;;1.73;;
46897;SDS011;32646;50.958;6.258;2023-08-01T13:21:03;4.70;;;1.58;;
46897;SDS011;32646;50.958;6.258;2023-08-01T13:23:29;4.95;;;1.70;;
46897;SDS011;32646;50.958;6.258;2023-08-01T13:25:56;6.45;;;1.70;;
46897;SDS011;32646;50.958;6.258;2023-08-01T13:28:22;4.03;;;1.60;;
46897;SDS011;32646;50.958;6.258;2023-08-01T13:30:49;6.35;;;1.92;;
46897;SDS011;32646;50.958;6.258;2023-08-01T13:33:16;4.45;;;2.13;;
46897;SDS011;32646;50.958;6.258;2023-08-01T13:35:42;4.60;;;2.10;;
46897;SDS011;32646;50.958;6.258;2023-08-01T13:38:09;4.70;;;2.40;;
46897;SDS011;32646;50.958;6.258;2023-08-01T13:40:35;5.65;;;2.35;;
46897;SDS011;32646;50.958;6.258;2023-08-01T13:43:02;4.80;;;1.80;;
46897;SDS011;32646;50.958;6.258;2023-08-01T13:45:32;4.28;;;1.67;;
46897;SDS011;32646;50.958;6.258;2023-08-01T13:47:58;4.72;;;1.58;;
46897;SDS011;32646;50.958;6.258;2023-08-01T13:50:25;4.43;;;1.80;;
46897;SDS011;32646;50.958;6.258;2023-08-01T13:52:54;7.90;;;1.60;;
46897;SDS011;32646;50.958;6.258;2023-08-01T13:55:21;5.65;;;1.73;;
46897;SDS011;32646;50.958;6.258;2023-08-01T13:57:47;4.03;;;1.67;;
46897;SDS011;32646;50.958;6.258;2023-08-01T14:00:14;4.28;;;1.33;;
46897;SDS011;32646;50.958;6.258;2023-08-01T14:02:41;5.88;;;1.55;;
46897;SDS011;32646;50.958;6.258;2023-08-01T14:05:08;3.60;;;1.25;;
46897;SDS011;32646;50.958;6.258;2023-08-01T14:07:35;5.28;;;1.88;;
46897;SDS011;32646;50.958;6.258;2023-08-01T14:10:05;4.60;;;1.55;;
46897;SDS011;32646;50.958;6.258;2023-08-01T14:12:32;4.55;;;1.40;;
46897;SDS011;32646;50.958;6.258;2023-08-01T14:14:59;6.20;;;1.40;;
46897;SDS011;32646;50.958;6.258;2023-08-01T14:17:25;5.10;;;1.50;;
46897;SDS011;32646;50.958;6.258;2023-08-01T14:19:52;6.32;;;1.50;;
46897;SDS011;32646;50.958;6.258;2023-08-01T14:22:19;4.88;;;1.30;;
46897;SDS011;32646;50.958;6.258;2023-08-01T14:24:45;5.38;;;1.48;;
46897;SDS011;32646;50.958;6.258;2023-08-01T14:27:12;5.78;;;1.33;;
46897;SDS011;32646;50.958;6.258;2023-08-01T14:29:38;3.60;;;1.13;;
46897;SDS011;32646;50.958;6.258;2023-08-01T14:32:06;4.18;;;1.25;;
46897;SDS011;32646;50.958;6.258;2023-08-01T14:34:32;2.47;;;1.00;;
46897;SDS011;32646;50.958;6.258;2023-08-01T14:36:59;4.85;;;1.20;;
46897;SDS011;32646;50.958;6.258;2023-08-01T14:39:26;3.83;;;1.23;;
46897;SDS011;32646;50.958;6.258;2023-08-01T14:41:52;4.22;;;1.15;;
46897;SDS011;32646;50.958;6.258;2023-08-01T14:44:24;3.42;;;1.15;;
46897;SDS011;32646;50.958;6.258;2023-08-01T14:46:51;3.92;;;1.10;;
46897;SDS011;32646;50.958;6.258;2023-08-01T14:49:17;3.78;;;1.20;;
46897;SDS011;32646;50.958;6.258;2023-08-01T14:51:44;4.43;;;1.00;;
46897;SDS011;32646;50.958;6.258;2023-08-01T14:54:11;7.40;;;1.27;;
46897;SDS011;32646;50.958;6.258;2023-08-01T14:56:40;3.03;;;1.10;;
46897;SDS011;32646;50.958;6.258;2023-08-01T14:59:09;3.22;;;1.20;;
46897;SDS011;32646;50.958;6.258;2023-08-01T15:01:35;3.20;;;1.20;;
46897;SDS011;32646;50.958;6.258;2023-08-01T15:04:02;3.75;;;1.15;;
46897;SDS011;32646;50.958;6.258;2023-08-01T15:06:29;4.13;;;1.30;;
46897;SDS011;32646;50.958;6.258;2023-08-01T15:08:55;2.63;;;1.00;;
46897;SDS011;32646;50.958;6.258;2023-08-01T15:11:22;3.17;;;1.17;;
46897;SDS011;32646;50.958;6.258;2023-08-01T15:13:48;3.85;;;1.33;;
46897;SDS011;32646;50.958;6.258;2023-08-01T15:16:15;5.15;;;1.50;;
46897;SDS011;32646;50.958;6.258;2023-08-01T15:18:42;5.55;;;1.50;;
46897;SDS011;32646;50.958;6.258;2023-08-01T15:21:08;3.38;;;0.93;;
46897;SDS011;32646;50.958;6.258;2023-08-01T15:23:35;5.78;;;0.98;;
46897;SDS011;32646;50.958;6.258;2023-08-01T15:26:02;4.28;;;1.10;;
46897;SDS011;32646;50.958;6.258;2023-08-01T15:28:28;4.70;;;1.35;;
46897;SDS011;32646;50.958;6.258;2023-08-01T15:31:01;3.28;;;1.20;;
46897;SDS011;32646;50.958;6.258;2023-08-01T15:33:33;4.15;;;1.10;;
46897;SDS011;32646;50.958;6.258;2023-08-01T15:36:01;3.65;;;0.90;;
46897;SDS011;32646;50.958;6.258;2023-08-01T15:38:33;4.68;;;1.02;;
46897;SDS011;32646;50.958;6.258;2023-08-01T15:41:02;4.53;;;0.90;;
46897;SDS011;32646;50.958;6.258;2023-08-01T15:43:29;4.38;;;1.48;;
46897;SDS011;32646;50.958;6.258;2023-08-01T15:45:56;5.35;;;1.30;;
46897;SDS011;32646;50.958;6.258;2023-08-01T15:48:22;3.30;;;1.10;;
46897;SDS011;32646;50.958;6.258;2023-08-01T15:50:49;4.75;;;1.00;;
46897;SDS011;32646;50.958;6.258;2023-08-01T15:53:16;5.22;;;1.30;;
46897;SDS011;32646;50.958;6.258;2023-08-01T15:55:42;2.80;;;1.02;;